createdAt,value
2022-11-24T00:01:33.471Z,100148.38
2022-11-24T00:04:03.983Z,100151.00
2022-11-24T00:06:35.325Z,100158.84
2022-11-24T00:09:06.909Z,100157.09
2022-11-24T00:11:37.905Z,100146.66
2022-11-24T00:14:07.684Z,100157.91
2022-11-24T00:16:38.434Z,100167.50
2022-11-24T00:19:09.710Z,100164.88
2022-11-24T00:21:39.609Z,100160.50
2022-11-24T00:24:13.142Z,100169.22
2022-11-24T00:26:41.608Z,100166.59
2022-11-24T00:29:12.120Z,100163.97
2022-11-24T00:31:43.211Z,100172.69
2022-11-24T00:34:14.966Z,100167.44
2022-11-24T00:36:44.041Z,100174.41
2022-11-24T00:39:15.942Z,100176.16
2022-11-24T00:41:45.062Z,100178.75
2022-11-24T00:44:15.374Z,100174.41
2022-11-24T00:46:43.934Z,100169.19
2022-11-24T00:49:12.442Z,100172.66
2022-11-24T00:51:40.790Z,100167.44
2022-11-24T00:54:12.033Z,100166.56
2022-11-24T00:56:41.996Z,100167.41
2022-11-24T00:59:10.461Z,100170.91
2022-11-24T01:01:39.040Z,100168.28
2022-11-24T01:04:07.478Z,100171.78
2022-11-24T01:06:37.337Z,100175.22
2022-11-24T01:09:06.146Z,100176.97
2022-11-24T01:11:50.817Z,100180.44
2022-11-24T01:14:21.182Z,100183.91
2022-11-24T01:16:49.826Z,100184.78
2022-11-24T01:19:18.843Z,100196.09
2022-11-24T01:21:47.512Z,100197.84
2022-11-24T01:24:16.136Z,100212.63
2022-11-24T01:26:44.572Z,100200.44
2022-11-24T01:29:14.405Z,100205.66
2022-11-24T01:31:45.435Z,100210.03
2022-11-24T01:34:14.106Z,100216.97
2022-11-24T01:36:42.678Z,100228.28
2022-11-24T01:39:18.733Z,100222.19
2022-11-24T01:41:47.424Z,100231.75
2022-11-24T01:44:24.420Z,100231.75
2022-11-24T01:46:59.303Z,100235.19
2022-11-24T01:49:37.123Z,100243.88
2022-11-24T01:52:10.861Z,100238.66
2022-11-24T01:54:42.917Z,100244.72
2022-11-24T01:57:16.830Z,100251.66
2022-11-24T01:59:46.753Z,100263.84
2022-11-24T02:02:17.136Z,100246.44
2022-11-24T02:04:47.072Z,100248.22
2022-11-24T02:07:16.473Z,100249.09
2022-11-24T02:09:51.665Z,100256.94
2022-11-24T02:12:20.091Z,100272.59
2022-11-24T02:14:48.547Z,100270.88
2022-11-24T02:17:18.303Z,100274.41
2022-11-24T02:19:55.908Z,100270.91
2022-11-24T02:22:33.848Z,100281.38
2022-11-24T02:25:12.842Z,100283.13
2022-11-24T02:27:49.379Z,100277.06
2022-11-24T02:30:21.275Z,100290.09
2022-11-24T02:32:49.838Z,100291.81
2022-11-24T02:35:18.334Z,100286.59
2022-11-24T02:37:46.716Z,100285.72
2022-11-24T02:40:17.550Z,100280.50
2022-11-24T02:42:48.288Z,100278.72
2022-11-24T02:45:18.035Z,100283.06
2022-11-24T02:47:46.652Z,100294.38
2022-11-24T02:50:14.996Z,100293.44
2022-11-24T02:52:43.673Z,100297.78
2022-11-24T02:55:12.450Z,100291.66
2022-11-24T02:57:40.984Z,100300.34
2022-11-24T03:00:12.812Z,100309.03
2022-11-24T03:02:41.435Z,100302.03
2022-11-24T03:05:11.916Z,100307.25
2022-11-24T03:07:40.399Z,100303.75
2022-11-24T03:10:09.642Z,100307.28
2022-11-24T03:12:38.033Z,100302.03
2022-11-24T03:15:07.833Z,100306.41
2022-11-24T03:17:37.578Z,100315.09
2022-11-24T03:20:07.061Z,100320.31
2022-11-24T03:22:35.570Z,100327.31
2022-11-24T03:25:03.937Z,100329.06
2022-11-24T03:27:32.720Z,100328.22
2022-11-24T03:30:01.324Z,100316.91
2022-11-24T03:32:29.711Z,100332.56
2022-11-24T03:34:59.527Z,100334.31
2022-11-24T03:37:28.206Z,100343.03
2022-11-24T03:39:56.606Z,100343.03
2022-11-24T03:42:24.994Z,100345.66
2022-11-24T03:44:53.427Z,100345.69
2022-11-24T03:47:21.824Z,100330.94
2022-11-24T03:49:50.170Z,100344.00
2022-11-24T03:52:19.932Z,100348.38
2022-11-24T03:54:48.883Z,100345.78
2022-11-24T03:57:17.258Z,100351.88
2022-11-24T03:59:48.258Z,100358.81
2022-11-24T04:02:16.723Z,100353.59
2022-11-24T04:04:50.692Z,100357.94
2022-11-24T04:07:23.154Z,100364.00
2022-11-24T04:09:51.643Z,100363.94
2022-11-24T04:12:37.566Z,100370.88
2022-11-24T04:15:07.045Z,100383.88
2022-11-24T04:17:36.042Z,100383.00
2022-11-24T04:20:05.283Z,100391.66
2022-11-24T04:22:35.736Z,100385.53
2022-11-24T04:25:04.628Z,100385.50
2022-11-24T04:27:34.915Z,100386.31
2022-11-24T04:30:03.507Z,100396.75
2022-11-24T04:32:31.765Z,100394.09
2022-11-24T04:35:00.032Z,100408.84
2022-11-24T04:37:28.215Z,100404.50
2022-11-24T04:39:58.018Z,100407.06
2022-11-24T04:42:26.220Z,100415.75
2022-11-24T04:44:54.442Z,100422.72
2022-11-24T04:47:25.150Z,100420.94
2022-11-24T04:49:54.204Z,100414.81
2022-11-24T04:52:24.685Z,100424.34
2022-11-24T04:54:53.659Z,100419.09
2022-11-24T04:57:26.560Z,100424.31
2022-11-24T04:59:55.840Z,100432.06
2022-11-24T05:02:24.975Z,100424.25
2022-11-24T05:04:53.473Z,100429.44
2022-11-24T05:07:21.731Z,100429.44
2022-11-24T05:10:07.681Z,100430.31
2022-11-24T05:12:37.313Z,100432.88
2022-11-24T05:15:07.864Z,100435.50
2022-11-24T05:17:38.925Z,100438.09
2022-11-24T05:20:12.045Z,100437.22
2022-11-24T05:22:41.040Z,100442.38
2022-11-24T05:25:10.125Z,100448.41
2022-11-24T05:27:39.763Z,100451.81
2022-11-24T05:30:09.998Z,100458.75
2022-11-24T05:32:38.239Z,100460.50
2022-11-24T05:35:09.699Z,100463.97
2022-11-24T05:37:38.639Z,100459.63
2022-11-24T05:40:08.510Z,100470.03
2022-11-24T05:42:47.349Z,100464.81
2022-11-24T05:45:20.825Z,100468.28
2022-11-24T05:47:50.858Z,100476.97
2022-11-24T05:50:22.772Z,100490.00
2022-11-24T05:52:51.681Z,100488.22
2022-11-24T05:55:20.821Z,100495.16
2022-11-24T05:57:49.063Z,100499.41
2022-11-24T06:00:20.174Z,100506.31
2022-11-24T06:02:49.161Z,100516.66
2022-11-24T06:05:17.805Z,100517.56
2022-11-24T06:07:46.186Z,100517.56
2022-11-24T06:10:15.209Z,100519.31
2022-11-24T06:12:43.428Z,100524.47
2022-11-24T06:15:12.784Z,100527.94
2022-11-24T06:17:42.553Z,100530.56
2022-11-24T06:20:12.535Z,100533.16
2022-11-24T06:22:40.796Z,100542.72
2022-11-24T06:25:10.636Z,100544.44
2022-11-24T06:27:38.876Z,100554.00
2022-11-24T06:30:08.561Z,100540.09
2022-11-24T06:32:36.790Z,100551.38
2022-11-24T06:35:08.485Z,100562.69
2022-11-24T06:37:37.795Z,100562.66
2022-11-24T06:40:08.757Z,100564.44
2022-11-24T06:42:37.306Z,100569.66
2022-11-24T06:45:09.435Z,100570.53
2022-11-24T06:47:38.076Z,100573.16
2022-11-24T06:50:10.574Z,100586.22
2022-11-24T06:52:38.753Z,100587.13
2022-11-24T06:55:08.624Z,100593.19
2022-11-24T06:57:36.827Z,100601.91
2022-11-24T07:00:16.744Z,100602.81
2022-11-24T07:02:47.791Z,100608.94
2022-11-24T07:05:17.680Z,100613.34
2022-11-24T07:07:45.885Z,100617.75
2022-11-24T07:10:14.207Z,100622.19
2022-11-24T07:12:42.394Z,100629.22
2022-11-24T07:15:11.590Z,100624.09
2022-11-24T07:17:40.239Z,100634.59
2022-11-24T07:20:10.763Z,100636.38
2022-11-24T07:22:40.382Z,100633.81
2022-11-24T07:25:10.944Z,100639.88
2022-11-24T07:27:39.132Z,100645.03
2022-11-24T07:30:09.311Z,100650.22
2022-11-24T07:32:37.513Z,100651.00
2022-11-24T07:35:07.070Z,100648.41
2022-11-24T07:37:35.288Z,100659.66
2022-11-24T07:40:06.112Z,100663.97
2022-11-24T07:42:34.627Z,100663.13
2022-11-24T07:45:03.121Z,100662.25
2022-11-24T07:47:31.453Z,100669.16
2022-11-24T07:49:59.729Z,100661.31
2022-11-24T07:52:28.016Z,100663.91
2022-11-24T07:54:56.239Z,100665.56
2022-11-24T07:57:26.072Z,100676.00
2022-11-24T07:59:54.398Z,100677.72
2022-11-24T08:02:22.949Z,100682.97
2022-11-24T08:04:51.112Z,100680.41
2022-11-24T08:07:19.368Z,100689.06
2022-11-24T08:09:48.457Z,100693.47
2022-11-24T08:12:17.486Z,100690.88
2022-11-24T08:14:47.265Z,100700.47
2022-11-24T08:17:15.515Z,100703.97
2022-11-24T08:19:43.880Z,100706.63
2022-11-24T08:22:12.620Z,100707.53
2022-11-24T08:24:46.395Z,100712.78
2022-11-24T08:27:14.966Z,100716.28
2022-11-24T08:29:43.612Z,100715.44
2022-11-24T08:32:20.459Z,100719.81
2022-11-24T08:34:52.201Z,100720.75
2022-11-24T08:37:26.509Z,100715.53
2022-11-24T08:39:54.799Z,100721.66
2022-11-24T08:42:23.094Z,100719.06
2022-11-24T08:44:58.632Z,100725.22
2022-11-24T08:47:28.969Z,100724.38
2022-11-24T08:49:57.338Z,100733.97
2022-11-24T08:52:25.590Z,100734.84
2022-11-24T08:54:54.354Z,100741.88
2022-11-24T08:57:22.548Z,100746.25
2022-11-24T08:59:50.812Z,100753.25
2022-11-24T09:02:19.058Z,100753.31
2022-11-24T09:04:48.682Z,100754.22
2022-11-24T09:07:16.960Z,100755.16
2022-11-24T09:09:45.336Z,100758.75
2022-11-24T09:12:14.712Z,100764.91
2022-11-24T09:14:43.047Z,100766.75
2022-11-24T09:17:11.550Z,100764.28
2022-11-24T09:19:39.855Z,100769.72
2022-11-24T09:22:09.397Z,100774.16
2022-11-24T09:24:37.627Z,100776.00
2022-11-24T09:27:05.812Z,100773.41
2022-11-24T09:29:34.172Z,100775.19
2022-11-24T09:32:06.699Z,100777.81
2022-11-24T09:34:35.583Z,100776.94
2022-11-24T09:37:03.980Z,100785.66
2022-11-24T09:39:34.205Z,100796.16
2022-11-24T09:42:11.862Z,100799.66
2022-11-24T09:45:04.485Z,100805.81
2022-11-24T09:47:48.088Z,100797.13
2022-11-24T09:50:21.713Z,100790.16
2022-11-24T09:52:59.252Z,100791.09
2022-11-24T09:55:38.405Z,100799.06
2022-11-24T09:58:37.114Z,100811.31
2022-11-24T10:01:11.807Z,100808.72
2022-11-24T10:03:44.463Z,100814.84
2022-11-24T10:06:24.348Z,100825.31
2022-11-24T10:09:37.144Z,100818.34
2022-11-24T10:12:23.316Z,100829.72
2022-11-24T10:15:32.835Z,100834.09
2022-11-24T10:18:29.460Z,100835.00
2022-11-24T10:21:17.819Z,100842.88
2022-11-24T10:24:00.307Z,100847.22
2022-11-24T10:26:37.043Z,100862.13
2022-11-24T10:29:21.170Z,100866.50
2022-11-24T10:31:55.036Z,100869.13
2022-11-24T10:34:29.700Z,100875.25
2022-11-24T10:37:05.098Z,100868.34
2022-11-24T10:39:40.473Z,100883.19
2022-11-24T10:42:17.390Z,100870.13
2022-11-24T10:44:47.280Z,100867.53
2022-11-24T10:47:22.626Z,100871.91
2022-11-24T10:49:58.158Z,100880.66
2022-11-24T10:52:30.210Z,100890.28
2022-11-24T10:55:00.670Z,100892.94
2022-11-24T10:57:32.256Z,100892.09
2022-11-24T11:00:03.432Z,100893.00
2022-11-24T11:02:36.991Z,100900.91
2022-11-24T11:05:35.217Z,100897.50
2022-11-24T11:08:25.731Z,100902.78
2022-11-24T11:11:19.986Z,100914.16
2022-11-24T11:13:55.804Z,100919.47
2022-11-24T11:16:36.877Z,100907.28
2022-11-24T11:19:33.317Z,100916.03
2022-11-24T11:22:03.828Z,100915.19
2022-11-24T11:24:32.318Z,100916.09
2022-11-24T11:27:02.388Z,100917.81
2022-11-24T11:35:14.326Z,100932.66
2022-11-24T11:37:43.585Z,100930.00
2022-11-24T11:40:17.631Z,100929.97
2022-11-24T11:43:08.064Z,100935.19
2022-11-24T11:45:38.678Z,100942.16
2022-11-24T11:48:26.293Z,100944.75
2022-11-24T11:51:22.174Z,100936.91
2022-11-24T11:53:56.943Z,100939.50
2022-11-24T11:56:30.178Z,100942.13
2022-11-24T11:59:42.954Z,100936.88
2022-11-24T12:03:06.967Z,100943.00
2022-11-24T12:05:50.583Z,100943.06
2022-11-24T12:08:56.049Z,100946.56
2022-11-24T12:11:33.068Z,100947.44
2022-11-24T12:14:23.151Z,100948.34
2022-11-24T12:17:02.887Z,100950.13
2022-11-24T12:19:59.825Z,100944.91
2022-11-24T12:22:40.224Z,100944.03
2022-11-24T12:25:24.471Z,100952.81
2022-11-24T12:28:07.571Z,100945.81
2022-11-24T12:30:44.972Z,100942.31
2022-11-24T12:33:38.609Z,100944.09
2022-11-24T12:36:17.950Z,100942.34
2022-11-24T12:38:59.857Z,100953.72
2022-11-24T12:41:43.763Z,100951.94
2022-11-24T12:44:35.315Z,100954.56
2022-11-24T12:47:16.134Z,100969.47
2022-11-24T12:49:58.793Z,100974.69
2022-11-24T12:52:32.435Z,100970.34
2022-11-24T12:55:03.064Z,100963.25
2022-11-24T12:57:36.645Z,100964.75
2022-11-24T13:00:09.327Z,100960.94
2022-11-24T13:02:56.560Z,100950.09
2022-11-24T13:05:33.715Z,100953.34
2022-11-24T13:08:04.937Z,100956.56
2022-11-24T13:10:55.444Z,100948.41
2022-11-24T13:13:29.106Z,100954.22
2022-11-24T13:19:14.162Z,100960.44
2022-11-24T13:21:59.440Z,100971.34
2022-11-24T13:24:30.789Z,100970.75
2022-11-24T13:27:42.562Z,100968.28
2022-11-24T13:30:59.170Z,100966.66
2022-11-24T13:33:38.814Z,100970.19
2022-11-24T13:36:33.003Z,100973.75
2022-11-24T13:39:03.382Z,100980.78
2022-11-24T13:42:43.683Z,100977.31
2022-11-24T13:45:01.952Z,100979.94
2022-11-24T13:47:42.911Z,100965.06
2022-11-24T13:50:23.553Z,100965.97
2022-11-24T13:53:01.405Z,100977.31
2022-11-24T13:55:38.981Z,100978.22
2022-11-24T13:58:31.260Z,100984.34
2022-11-24T14:01:20.271Z,100984.38
2022-11-24T14:07:02.391Z,100987.88
2022-11-24T14:09:43.801Z,100991.34
2022-11-24T14:12:19.014Z,101000.97
2022-11-24T14:14:49.322Z,101002.69
2022-11-24T14:17:23.227Z,101002.69
2022-11-24T14:19:53.820Z,101012.31
2022-11-24T14:22:26.627Z,101009.72
2022-11-24T14:24:57.701Z,101014.09
2022-11-24T14:27:32.088Z,101012.38
2022-11-24T14:30:02.225Z,101014.13
2022-11-24T14:32:31.957Z,101007.94
2022-11-24T14:35:00.509Z,101007.94
2022-11-24T14:37:28.876Z,101012.31
2022-11-24T14:39:57.199Z,101023.66
2022-11-24T14:42:28.327Z,101009.63
2022-11-24T14:44:59.301Z,101017.47
2022-11-24T14:47:33.000Z,101016.56
2022-11-24T14:50:12.335Z,101020.06
2022-11-24T14:52:47.555Z,101011.28
2022-11-24T14:55:28.450Z,101014.72
2022-11-24T14:57:57.383Z,101019.97
2022-11-24T15:00:31.523Z,101027.78
2022-11-24T15:03:20.433Z,101030.31
2022-11-24T15:05:55.011Z,101030.28
2022-11-24T15:08:25.510Z,101037.16
2022-11-24T15:11:00.338Z,101034.47
2022-11-24T15:13:30.150Z,101051.84
2022-11-24T15:16:03.255Z,101048.28
2022-11-24T15:18:42.391Z,101052.56
2022-11-24T15:21:17.201Z,101053.38
2022-11-24T15:24:07.901Z,101056.81
2022-11-24T15:26:41.610Z,101069.84
2022-11-24T15:29:10.771Z,101061.91
2022-11-24T15:31:39.553Z,101072.28
2022-11-24T15:34:13.867Z,101067.81
2022-11-24T15:36:42.175Z,101067.72
2022-11-24T15:39:10.382Z,101063.25
2022-11-24T15:41:38.946Z,101064.94
2022-11-24T15:44:08.592Z,101071.00
2022-11-24T15:46:39.565Z,101059.63
2022-11-24T15:49:09.312Z,101066.53
2022-11-24T15:51:39.665Z,101069.13
2022-11-24T15:54:11.399Z,101069.94
2022-11-24T15:56:41.868Z,101068.16
2022-11-24T15:59:18.761Z,101075.94
2022-11-24T16:01:49.847Z,101080.19
2022-11-24T16:04:19.848Z,101083.63
2022-11-24T16:06:48.107Z,101094.88
2022-11-24T16:09:18.137Z,101091.38
2022-11-24T16:11:46.510Z,101093.88
2022-11-24T16:14:14.830Z,101110.31
2022-11-24T16:16:43.252Z,101098.91
2022-11-24T16:19:12.884Z,101098.81
2022-11-24T16:21:42.572Z,101102.25
2022-11-24T16:24:11.037Z,101100.50
2022-11-24T16:26:39.420Z,101097.84
2022-11-24T16:29:07.592Z,101100.44
2022-11-24T16:31:36.307Z,101101.31
2022-11-24T16:34:04.651Z,101096.03
2022-11-24T16:36:32.992Z,101098.63
2022-11-24T16:39:02.712Z,101099.47
2022-11-24T16:41:30.900Z,101102.91
2022-11-24T16:43:59.312Z,101096.72
2022-11-24T16:46:27.726Z,101100.16
2022-11-24T16:49:01.270Z,101096.59
2022-11-24T16:51:34.787Z,101095.63
2022-11-24T16:54:05.110Z,101096.44
2022-11-24T16:56:33.543Z,101097.25
2022-11-24T16:59:01.849Z,101092.84
2022-11-24T17:01:30.805Z,101098.88
2022-11-24T17:03:59.038Z,101098.84
2022-11-24T17:06:30.573Z,101097.09
2022-11-24T17:08:59.195Z,101103.19
2022-11-24T17:11:30.401Z,101099.69
2022-11-24T17:13:59.499Z,101097.06
2022-11-24T17:16:28.475Z,101098.78
2022-11-24T17:18:58.657Z,101096.13
2022-11-24T17:21:29.335Z,101092.63
2022-11-24T17:24:00.291Z,101096.88
2022-11-24T17:26:30.044Z,101093.38
2022-11-24T17:28:58.592Z,101095.13
2022-11-24T17:31:29.145Z,101101.22
2022-11-24T17:33:59.010Z,101099.50
2022-11-24T17:36:28.549Z,101098.59
2022-11-24T17:38:57.111Z,101098.53
2022-11-24T17:41:25.384Z,101104.59
2022-11-24T17:43:56.880Z,101095.94
2022-11-24T17:46:25.783Z,101102.88
2022-11-24T17:48:54.533Z,101099.44
2022-11-24T17:51:24.950Z,101113.31
2022-11-24T17:53:55.339Z,101104.59
2022-11-24T17:56:25.556Z,101108.06
2022-11-24T17:58:56.682Z,101109.75
2022-11-24T18:01:26.310Z,101114.94
2022-11-24T18:03:55.230Z,101107.03
2022-11-24T18:06:25.490Z,101104.34
2022-11-24T18:08:55.003Z,101103.38
2022-11-24T18:11:30.686Z,101112.03
2022-11-24T18:14:03.571Z,101112.88
2022-11-24T18:16:34.236Z,101101.59
2022-11-24T18:19:10.791Z,101107.66
2022-11-24T18:21:40.939Z,101106.78
2022-11-24T18:24:10.049Z,101102.44
2022-11-24T18:26:39.202Z,101109.34
2022-11-24T18:29:08.950Z,101111.94
2022-11-24T18:31:37.932Z,101108.34
2022-11-24T18:34:07.276Z,101112.69
2022-11-24T18:36:35.967Z,101114.47
2022-11-24T18:39:05.938Z,101114.38
2022-11-24T18:41:34.807Z,101107.38
2022-11-24T18:44:07.515Z,101110.81
2022-11-24T18:46:37.557Z,101107.31
2022-11-24T18:49:06.950Z,101111.59
2022-11-24T18:51:35.716Z,101111.50
2022-11-24T18:54:05.554Z,101113.19
2022-11-24T18:56:34.407Z,101116.63
2022-11-24T18:59:02.648Z,101107.91
2022-11-24T19:01:32.148Z,101113.88
2022-11-24T19:04:03.507Z,101120.75
2022-11-24T19:06:34.126Z,101118.97
2022-11-24T19:09:05.711Z,101118.03
2022-11-24T19:11:37.659Z,101118.00
2022-11-24T19:14:09.667Z,101125.75
2022-11-24T19:16:39.451Z,101121.38
2022-11-24T19:19:11.050Z,101116.97
2022-11-24T19:21:41.393Z,101122.25
2022-11-24T19:24:11.104Z,101125.75
2022-11-24T19:26:40.460Z,101126.63
2022-11-24T19:29:09.638Z,101122.34
2022-11-24T19:31:39.421Z,101114.56
2022-11-24T19:34:10.281Z,101122.34
2022-11-24T19:36:40.452Z,101117.03
2022-11-24T19:39:08.798Z,101109.13
2022-11-24T19:41:37.253Z,101116.94
2022-11-24T19:44:05.858Z,101122.00
2022-11-24T19:46:34.150Z,101125.53
2022-11-24T19:49:04.649Z,101128.94
2022-11-24T19:51:36.584Z,101127.09
2022-11-24T19:54:06.986Z,101125.31
2022-11-24T19:56:37.527Z,101121.78
2022-11-24T19:59:07.306Z,101123.41
2022-11-24T20:01:38.138Z,101119.00
2022-11-24T20:04:10.415Z,101118.19
2022-11-24T20:06:41.857Z,101130.31
2022-11-24T20:09:12.572Z,101117.25
2022-11-24T20:11:41.175Z,101120.78
2022-11-24T20:14:13.233Z,101120.78
2022-11-24T20:16:42.121Z,101116.44
2022-11-24T20:19:13.559Z,101119.91
2022-11-24T20:21:46.251Z,101112.97
2022-11-24T20:24:17.048Z,101112.09
2022-11-24T20:26:49.171Z,101107.78
2022-11-24T20:29:19.433Z,101106.09
2022-11-24T20:31:50.527Z,101102.66
2022-11-24T20:34:20.069Z,101095.66
2022-11-24T20:36:52.785Z,101100.88
2022-11-24T20:39:25.415Z,101101.69
2022-11-24T20:41:54.795Z,101108.53
2022-11-24T20:44:26.443Z,101104.19
2022-11-24T20:46:58.211Z,101107.66
2022-11-24T20:49:27.066Z,101104.97
2022-11-24T20:51:57.432Z,101107.50
2022-11-24T20:54:25.968Z,101113.50
2022-11-24T20:56:54.364Z,101117.78
2022-11-24T20:59:25.399Z,101109.06
2022-11-24T21:01:55.406Z,101103.84
2022-11-24T21:04:26.773Z,101114.25
2022-11-24T21:06:56.511Z,101110.00
2022-11-24T21:09:27.230Z,101112.66
2022-11-24T21:11:56.135Z,101116.19
2022-11-24T21:14:25.112Z,101116.25
2022-11-24T21:16:53.388Z,101122.41
2022-11-24T21:19:21.572Z,101125.91
2022-11-24T21:21:50.079Z,101121.66
2022-11-24T21:24:21.754Z,101113.06
2022-11-24T21:26:52.808Z,101107.03
2022-11-24T21:29:23.589Z,101105.34
2022-11-24T21:31:52.249Z,101114.97
2022-11-24T21:34:20.606Z,101102.84
2022-11-24T21:36:49.271Z,101107.25
2022-11-24T21:39:19.035Z,101102.06
2022-11-24T21:41:47.619Z,101101.25
2022-11-24T21:44:16.105Z,101097.84
2022-11-24T21:46:49.585Z,101095.31
2022-11-24T21:49:22.610Z,101078.88
2022-11-24T21:51:55.383Z,101089.38
2022-11-24T21:54:25.256Z,101083.34
2022-11-24T21:56:55.462Z,101092.03
2022-11-24T21:59:23.719Z,101084.22
2022-11-24T22:01:52.081Z,101085.97
2022-11-24T22:04:20.327Z,101079.84
2022-11-24T22:06:48.579Z,101091.06
2022-11-24T22:09:18.457Z,101082.34
2022-11-24T22:11:49.640Z,101092.72
2022-11-24T22:14:17.953Z,101092.69
2022-11-24T22:16:46.633Z,101083.03
2022-11-24T22:19:14.934Z,101085.59
2022-11-24T22:21:43.317Z,101094.25
2022-11-24T22:24:11.986Z,101092.44
2022-11-24T22:26:40.337Z,101088.00
2022-11-24T22:29:10.166Z,101088.84
2022-11-24T22:31:38.528Z,101089.69
2022-11-24T22:34:07.023Z,101085.34
2022-11-24T22:36:36.670Z,101089.63
2022-11-24T22:39:06.989Z,101086.22
2022-11-24T22:41:36.836Z,101083.50
2022-11-24T22:44:05.852Z,101078.34
2022-11-24T22:46:35.680Z,101074.84
2022-11-24T22:49:05.139Z,101073.13
2022-11-24T22:51:35.831Z,101074.91
2022-11-24T22:54:06.108Z,101069.72
2022-11-24T22:56:35.358Z,101075.78
2022-11-24T22:59:04.696Z,101075.84
2022-11-24T23:01:35.327Z,101090.59
2022-11-24T23:04:04.096Z,101075.84
2022-11-24T23:06:34.339Z,101070.72
2022-11-24T23:09:05.005Z,101070.00
2022-11-24T23:11:38.244Z,101064.06
2022-11-24T23:14:08.613Z,101072.00
2022-11-24T23:16:38.388Z,101068.75
2022-11-24T23:19:06.946Z,101068.03
2022-11-24T23:21:38.265Z,101071.69
2022-11-24T23:24:08.961Z,101072.72
2022-11-24T23:26:39.803Z,101075.44
2022-11-24T23:29:09.276Z,101072.94
2022-11-24T23:31:40.084Z,101065.22
2022-11-24T23:34:08.860Z,101066.22
2022-11-24T23:36:37.098Z,101064.56
2022-11-24T23:39:06.942Z,101057.72
2022-11-24T23:41:35.346Z,101070.84
2022-11-24T23:44:03.584Z,101066.53
2022-11-24T23:46:32.458Z,101066.53
2022-11-24T23:49:02.049Z,101064.81
2022-11-24T23:51:32.488Z,101057.91
2022-11-24T23:54:02.522Z,101050.97
2022-11-24T23:56:33.289Z,101044.94
2022-11-24T23:59:02.842Z,101041.50
